createdAt,value
2022-12-29T00:00:14.842Z,84.35
2022-12-29T00:02:41.702Z,83.87
2022-12-29T00:05:08.439Z,83.94
2022-12-29T00:07:34.947Z,84.35
2022-12-29T00:10:01.369Z,84.14
2022-12-29T00:12:47.641Z,84.26
2022-12-29T00:15:32.854Z,83.95
2022-12-29T00:17:59.205Z,82.98
2022-12-29T00:20:44.186Z,83.91
2022-12-29T00:23:28.858Z,84.09
2022-12-29T00:26:13.642Z,84.28
2022-12-29T00:28:58.991Z,85.02
2022-12-29T00:31:43.896Z,83.64
2022-12-29T00:34:30.531Z,83.64
2022-12-29T00:36:57.472Z,83.30
2022-12-29T00:39:42.389Z,82.53
2022-12-29T00:42:28.226Z,82.75
2022-12-29T00:44:54.752Z,82.50
2022-12-29T00:47:21.080Z,81.64
2022-12-29T00:49:47.443Z,80.68
2022-12-29T00:52:14.537Z,80.67
2022-12-29T00:54:42.077Z,79.82
2022-12-29T00:57:10.458Z,79.98
2022-12-29T00:59:38.695Z,79.70
2022-12-29T01:02:05.651Z,80.38
2022-12-29T01:04:32.494Z,80.27
2022-12-29T01:06:59.494Z,80.50
2022-12-29T01:09:44.482Z,79.47
2022-12-29T01:12:11.210Z,79.36
2022-12-29T01:14:38.792Z,80.74
2022-12-29T01:17:05.737Z,79.58
2022-12-29T01:19:32.176Z,79.55
2022-12-29T01:21:58.729Z,78.93
2022-12-29T01:24:26.865Z,78.85
2022-12-29T01:26:53.335Z,79.44
2022-12-29T01:29:19.725Z,78.69
2022-12-29T01:31:46.691Z,78.62
2022-12-29T01:34:14.002Z,78.18
2022-12-29T01:36:40.353Z,77.81
2022-12-29T01:39:07.770Z,77.30
2022-12-29T01:41:34.264Z,77.49
2022-12-29T01:44:02.573Z,76.87
2022-12-29T01:46:31.049Z,76.82
2022-12-29T01:49:19.993Z,76.71
2022-12-29T01:51:53.281Z,75.95
2022-12-29T01:54:41.728Z,76.82
2022-12-29T01:57:14.366Z,76.22
2022-12-29T01:59:46.936Z,76.33
2022-12-29T02:02:13.730Z,75.51
2022-12-29T02:04:46.472Z,76.12
2022-12-29T02:07:19.092Z,75.08
2022-12-29T02:09:49.124Z,73.75
2022-12-29T02:12:15.939Z,73.38
2022-12-29T02:14:44.749Z,73.63
2022-12-29T02:17:27.850Z,73.94
2022-12-29T02:20:11.795Z,73.13
2022-12-29T02:22:47.314Z,72.58
2022-12-29T02:25:20.850Z,73.76
2022-12-29T02:28:02.028Z,73.62
2022-12-29T02:30:34.458Z,73.29
2022-12-29T02:33:32.219Z,73.40
2022-12-29T02:36:31.364Z,73.82
2022-12-29T02:39:13.774Z,73.34
2022-12-29T02:42:15.007Z,74.32
2022-12-29T02:45:02.906Z,74.49
2022-12-29T02:47:42.408Z,74.30
2022-12-29T02:50:21.976Z,74.42
2022-12-29T02:52:53.740Z,74.48
2022-12-29T02:55:20.115Z,75.21
2022-12-29T02:57:46.502Z,75.00
2022-12-29T03:00:18.081Z,75.41
2022-12-29T03:03:06.363Z,75.77
2022-12-29T03:05:45.040Z,77.17
2022-12-29T03:08:35.665Z,79.06
2022-12-29T03:11:31.954Z,79.35
2022-12-29T03:14:28.324Z,80.32
2022-12-29T03:17:00.585Z,79.41
2022-12-29T03:19:39.044Z,80.25
2022-12-29T03:22:27.796Z,79.94
2022-12-29T03:25:16.825Z,79.96
2022-12-29T03:27:57.995Z,80.29
2022-12-29T03:30:25.743Z,79.93
2022-12-29T03:33:02.788Z,78.36
2022-12-29T03:35:32.425Z,78.70
2022-12-29T03:38:14.371Z,79.41
2022-12-29T03:40:45.696Z,78.68
2022-12-29T03:43:13.773Z,77.97
2022-12-29T03:45:40.606Z,78.07
2022-12-29T03:48:07.012Z,77.51
2022-12-29T03:50:33.668Z,77.89
2022-12-29T03:53:00.132Z,77.29
2022-12-29T03:55:26.575Z,77.23
2022-12-29T03:57:52.996Z,77.44
2022-12-29T04:00:19.355Z,77.07
2022-12-29T04:02:45.892Z,76.76
2022-12-29T04:05:12.366Z,76.27
2022-12-29T04:07:40.874Z,76.92
2022-12-29T04:10:07.700Z,76.62
2022-12-29T04:12:34.097Z,75.76
2022-12-29T04:15:00.611Z,75.37
2022-12-29T04:17:26.986Z,75.91
2022-12-29T04:20:13.336Z,75.11
2022-12-29T04:22:40.889Z,74.66
2022-12-29T04:25:07.769Z,75.35
2022-12-29T04:27:34.188Z,74.39
2022-12-29T04:30:00.968Z,73.97
2022-12-29T04:32:27.294Z,73.21
2022-12-29T04:34:53.686Z,72.73
2022-12-29T04:37:20.025Z,72.25
2022-12-29T04:39:46.346Z,71.50
2022-12-29T04:42:12.667Z,70.93
2022-12-29T04:44:44.913Z,71.30
2022-12-29T04:47:11.636Z,71.72
2022-12-29T04:49:38.018Z,71.16
2022-12-29T04:52:05.047Z,70.43
2022-12-29T04:54:31.379Z,70.32
2022-12-29T04:56:57.707Z,70.27
2022-12-29T04:59:24.289Z,71.23
2022-12-29T05:01:50.710Z,71.00
2022-12-29T05:04:17.152Z,70.76
2022-12-29T05:06:43.557Z,69.95
2022-12-29T05:09:10.007Z,70.07
2022-12-29T05:11:36.355Z,69.67
2022-12-29T05:14:02.692Z,68.93
2022-12-29T05:16:29.075Z,70.03
2022-12-29T05:18:55.676Z,69.63
2022-12-29T05:21:21.993Z,68.66
2022-12-29T05:23:48.336Z,68.92
2022-12-29T05:26:14.698Z,68.78
2022-12-29T05:28:41.105Z,69.03
2022-12-29T05:31:07.486Z,70.28
2022-12-29T05:33:34.042Z,69.63
2022-12-29T05:36:08.142Z,69.48
2022-12-29T05:38:35.067Z,71.02
2022-12-29T05:41:01.732Z,69.92
2022-12-29T05:43:28.119Z,70.27
2022-12-29T05:45:55.227Z,69.50
2022-12-29T05:48:21.886Z,69.88
2022-12-29T05:50:49.608Z,69.85
2022-12-29T05:53:16.140Z,69.89
2022-12-29T05:55:48.491Z,70.10
2022-12-29T05:58:16.585Z,69.32
2022-12-29T06:00:44.111Z,69.64
2022-12-29T06:03:10.738Z,69.43
2022-12-29T06:05:37.235Z,68.69
2022-12-29T06:08:04.300Z,69.29
2022-12-29T06:10:30.634Z,69.15
2022-12-29T06:12:57.016Z,68.51
2022-12-29T06:15:23.351Z,69.29
2022-12-29T06:17:49.707Z,68.74
2022-12-29T06:20:16.111Z,68.05
2022-12-29T06:22:43.915Z,68.37
2022-12-29T06:25:10.363Z,68.71
2022-12-29T06:27:36.692Z,67.63
2022-12-29T06:30:03.819Z,67.45
2022-12-29T06:32:30.196Z,67.44
2022-12-29T06:34:56.553Z,68.09
2022-12-29T06:37:22.858Z,68.64
2022-12-29T06:39:49.227Z,68.08
2022-12-29T06:42:15.621Z,67.81
2022-12-29T06:44:41.972Z,68.33
2022-12-29T06:47:08.704Z,66.93
2022-12-29T06:49:35.131Z,67.96
2022-12-29T06:52:09.080Z,68.72
2022-12-29T06:54:39.055Z,68.23
2022-12-29T06:57:05.425Z,68.26
2022-12-29T06:59:31.770Z,68.61
2022-12-29T07:01:58.372Z,68.87
2022-12-29T07:04:25.355Z,68.36
2022-12-29T07:06:51.707Z,68.40
2022-12-29T07:09:18.072Z,67.71
2022-12-29T07:11:44.430Z,68.36
2022-12-29T07:14:12.127Z,67.54
2022-12-29T07:16:38.729Z,68.39
2022-12-29T07:19:05.444Z,68.33
2022-12-29T07:21:31.907Z,68.17
2022-12-29T07:23:58.269Z,68.00
2022-12-29T07:26:25.128Z,67.54
2022-12-29T07:28:51.868Z,67.51
2022-12-29T07:31:20.842Z,67.33
2022-12-29T07:33:48.607Z,67.98
2022-12-29T07:36:16.738Z,66.64
2022-12-29T07:38:44.098Z,66.58
2022-12-29T07:41:10.672Z,65.73
2022-12-29T07:43:37.203Z,66.33
2022-12-29T07:46:03.714Z,67.56
2022-12-29T07:48:30.226Z,67.23
2022-12-29T07:50:56.860Z,66.98
2022-12-29T07:53:23.224Z,66.37
2022-12-29T07:55:49.592Z,66.82
2022-12-29T07:58:15.952Z,67.59
2022-12-29T08:00:42.358Z,66.61
2022-12-29T08:03:08.696Z,66.76
2022-12-29T08:05:35.381Z,66.64
2022-12-29T08:08:02.186Z,66.40
2022-12-29T08:10:28.600Z,68.66
2022-12-29T08:12:55.001Z,69.48
2022-12-29T08:15:24.438Z,69.89
2022-12-29T08:17:53.517Z,69.87
2022-12-29T08:20:19.901Z,70.18
2022-12-29T08:22:46.399Z,70.65
2022-12-29T08:25:12.868Z,70.18
2022-12-29T08:27:39.353Z,69.23
2022-12-29T08:30:06.361Z,68.65
2022-12-29T08:32:33.079Z,68.67
2022-12-29T08:34:59.399Z,70.28
2022-12-29T08:37:30.850Z,69.30
2022-12-29T08:39:58.704Z,69.82
2022-12-29T08:42:26.003Z,69.84
2022-12-29T08:44:52.332Z,69.27
2022-12-29T08:47:18.669Z,68.96
2022-12-29T08:49:45.072Z,68.82
2022-12-29T08:52:11.447Z,68.38
2022-12-29T08:54:37.917Z,68.12
2022-12-29T08:57:04.243Z,67.39
2022-12-29T08:59:30.644Z,67.57
2022-12-29T09:01:57.153Z,66.71
2022-12-29T09:04:24.746Z,66.74
2022-12-29T09:06:51.328Z,66.66
2022-12-29T09:09:17.993Z,66.65
2022-12-29T09:11:45.116Z,67.34
2022-12-29T09:14:11.726Z,66.82
2022-12-29T09:16:38.467Z,65.48
2022-12-29T09:19:07.534Z,65.15
2022-12-29T09:21:33.888Z,64.96
2022-12-29T09:24:00.365Z,64.83
2022-12-29T09:26:26.938Z,64.29
2022-12-29T09:28:53.322Z,64.14
2022-12-29T09:31:19.793Z,63.54
2022-12-29T09:33:46.226Z,62.75
2022-12-29T09:36:22.614Z,63.16
2022-12-29T09:38:49.032Z,62.18
2022-12-29T09:41:25.239Z,62.33
2022-12-29T09:44:14.141Z,62.21
2022-12-29T09:46:51.476Z,61.45
2022-12-29T09:49:30.033Z,60.73
2022-12-29T09:52:02.959Z,61.00
2022-12-29T09:55:03.150Z,60.29
2022-12-29T09:57:40.840Z,61.04
2022-12-29T10:00:34.425Z,61.65
2022-12-29T10:03:07.059Z,60.63
2022-12-29T10:06:02.366Z,60.89
2022-12-29T10:08:52.876Z,60.69
2022-12-29T10:11:33.184Z,60.33
2022-12-29T10:14:13.906Z,60.73
2022-12-29T10:17:01.254Z,60.97
2022-12-29T10:19:44.754Z,60.86
2022-12-29T10:22:20.200Z,59.83
2022-12-29T10:24:50.151Z,60.10
2022-12-29T10:27:17.897Z,60.71
2022-12-29T10:29:53.055Z,61.08
2022-12-29T10:32:33.361Z,60.74
2022-12-29T10:35:07.012Z,60.07
2022-12-29T10:37:51.515Z,60.25
2022-12-29T10:40:43.447Z,59.36
2022-12-29T10:43:43.283Z,59.01
2022-12-29T10:46:14.217Z,58.44
2022-12-29T10:48:40.730Z,58.27
2022-12-29T10:51:09.512Z,58.56
2022-12-29T10:53:44.594Z,58.43
2022-12-29T10:56:35.835Z,58.80
2022-12-29T10:59:14.263Z,58.30
2022-12-29T11:02:00.970Z,59.09
2022-12-29T11:04:51.883Z,58.61
2022-12-29T11:07:26.651Z,58.62
2022-12-29T11:09:53.881Z,58.67
2022-12-29T11:12:32.043Z,59.04
2022-12-29T11:15:17.064Z,58.79
2022-12-29T11:17:49.371Z,58.58
2022-12-29T11:20:36.458Z,58.78
2022-12-29T11:23:05.118Z,58.64
2022-12-29T11:25:32.088Z,58.44
2022-12-29T11:28:00.275Z,58.44
2022-12-29T11:30:30.518Z,59.01
2022-12-29T11:32:57.843Z,59.28
2022-12-29T11:35:41.785Z,59.15
2022-12-29T11:38:26.496Z,59.70
2022-12-29T11:40:52.911Z,59.16
2022-12-29T11:43:31.820Z,59.30
2022-12-29T11:46:08.067Z,59.88
2022-12-29T11:48:40.355Z,59.54
2022-12-29T11:51:08.000Z,59.78
2022-12-29T11:53:45.012Z,59.81
2022-12-29T11:56:17.847Z,59.53
2022-12-29T11:58:44.734Z,59.07
2022-12-29T12:01:19.265Z,59.82
2022-12-29T12:03:57.321Z,59.38
2022-12-29T12:06:25.169Z,59.29
2022-12-29T12:08:58.804Z,59.34
2022-12-29T12:11:37.125Z,58.82
2022-12-29T12:14:13.227Z,58.86
2022-12-29T12:16:49.660Z,59.55
2022-12-29T12:19:39.811Z,58.62
2022-12-29T12:22:16.978Z,58.86
2022-12-29T12:24:53.052Z,58.96
2022-12-29T12:27:24.527Z,59.22
2022-12-29T12:30:15.132Z,59.14
2022-12-29T12:33:05.629Z,58.73
2022-12-29T12:35:41.076Z,58.87
2022-12-29T12:38:24.489Z,58.34
2022-12-29T12:41:14.358Z,58.47
2022-12-29T12:43:55.854Z,58.94
2022-12-29T12:46:58.926Z,58.46
2022-12-29T12:49:53.053Z,58.99
2022-12-29T12:52:48.647Z,59.13
2022-12-29T12:55:36.503Z,59.54
2022-12-29T12:58:36.651Z,59.58
2022-12-29T13:01:15.340Z,59.44
2022-12-29T13:03:55.421Z,59.33
2022-12-29T13:06:59.256Z,58.96
2022-12-29T13:09:33.359Z,58.88
2022-12-29T13:12:24.629Z,58.30
2022-12-29T13:14:50.895Z,59.55
2022-12-29T13:17:35.715Z,59.30
2022-12-29T13:20:18.418Z,58.99
2022-12-29T13:23:05.525Z,58.82
2022-12-29T13:25:51.245Z,59.33
2022-12-29T13:28:36.671Z,58.81
2022-12-29T13:31:24.001Z,58.74
2022-12-29T13:33:56.899Z,58.97
2022-12-29T13:36:46.597Z,58.97
2022-12-29T13:39:27.358Z,59.04
2022-12-29T13:41:57.701Z,58.89
2022-12-29T13:44:23.976Z,59.11
2022-12-29T13:46:50.690Z,58.44
2022-12-29T13:49:22.726Z,58.87
2022-12-29T13:51:52.853Z,58.97
2022-12-29T13:54:37.932Z,59.07
2022-12-29T13:57:38.320Z,59.76
2022-12-29T14:00:08.652Z,60.50
2022-12-29T14:02:47.319Z,59.22
2022-12-29T14:05:22.716Z,59.73
2022-12-29T14:07:57.570Z,60.12
2022-12-29T14:10:38.862Z,59.54
2022-12-29T14:13:05.168Z,59.67
2022-12-29T14:15:31.621Z,60.01
2022-12-29T14:18:29.165Z,59.94
2022-12-29T14:21:00.604Z,58.94
2022-12-29T14:23:39.244Z,59.79
2022-12-29T14:26:05.540Z,59.35
2022-12-29T14:28:34.425Z,59.11
2022-12-29T14:31:02.889Z,59.19
2022-12-29T14:33:31.812Z,59.36
2022-12-29T14:36:22.538Z,60.35
2022-12-29T14:38:57.874Z,60.03
2022-12-29T14:41:37.856Z,60.59
2022-12-29T14:44:21.754Z,60.04
2022-12-29T14:46:53.949Z,60.01
2022-12-29T14:49:24.222Z,59.47
2022-12-29T14:51:54.590Z,60.22
2022-12-29T14:54:39.184Z,59.54
2022-12-29T14:57:07.015Z,59.91
2022-12-29T14:59:35.512Z,59.84
2022-12-29T15:02:05.835Z,60.07
2022-12-29T15:04:34.465Z,59.55
2022-12-29T15:07:04.269Z,60.39
2022-12-29T15:09:34.557Z,62.52
2022-12-29T15:12:16.485Z,65.47
2022-12-29T15:14:55.310Z,65.51
2022-12-29T15:17:30.840Z,64.94
2022-12-29T15:19:59.265Z,64.68
2022-12-29T15:22:27.032Z,64.20
2022-12-29T15:28:04.608Z,64.39
2022-12-29T15:30:31.379Z,64.41
2022-12-29T15:32:57.940Z,65.05
2022-12-29T15:35:37.098Z,65.17
2022-12-29T15:38:30.374Z,64.89
2022-12-29T15:41:54.237Z,64.23
2022-12-29T15:44:29.583Z,63.92
2022-12-29T15:46:56.019Z,64.42
2022-12-29T15:49:28.841Z,63.85
2022-12-29T15:51:58.702Z,63.47
2022-12-29T15:54:27.409Z,62.88
2022-12-29T15:56:53.838Z,62.16
2022-12-29T15:59:28.947Z,61.92
2022-12-29T16:02:00.175Z,60.85
2022-12-29T16:04:33.646Z,60.92
2022-12-29T16:07:52.678Z,61.40
2022-12-29T16:10:37.830Z,61.21
2022-12-29T16:13:13.596Z,59.94
2022-12-29T16:15:40.059Z,60.22
2022-12-29T16:18:06.435Z,59.88
2022-12-29T16:20:41.331Z,60.74
2022-12-29T16:23:23.477Z,60.58
2022-12-29T16:25:50.123Z,59.69
2022-12-29T16:28:20.938Z,59.79
2022-12-29T16:30:47.490Z,60.17
2022-12-29T16:33:37.607Z,60.39
2022-12-29T16:36:23.434Z,61.21
2022-12-29T16:38:50.037Z,61.37
2022-12-29T16:41:30.879Z,61.24
2022-12-29T16:44:23.608Z,61.77
2022-12-29T16:47:03.327Z,62.74
2022-12-29T16:49:32.787Z,62.09
2022-12-29T16:51:59.647Z,62.37
2022-12-29T16:54:35.289Z,62.84
2022-12-29T16:57:03.462Z,63.19
2022-12-29T16:59:39.327Z,62.82
2022-12-29T17:02:26.716Z,63.24
2022-12-29T17:04:53.840Z,62.82
2022-12-29T17:07:23.905Z,64.07
2022-12-29T17:09:51.205Z,66.30
2022-12-29T17:12:24.958Z,66.63
2022-12-29T17:15:14.956Z,66.39
2022-12-29T17:17:50.213Z,66.98
2022-12-29T17:20:29.533Z,69.41
2022-12-29T17:22:56.759Z,70.98
2022-12-29T17:25:31.917Z,71.48
2022-12-29T17:28:05.123Z,70.03
2022-12-29T17:30:34.714Z,70.16
2022-12-29T17:33:08.778Z,69.68
2022-12-29T17:35:35.212Z,70.09
2022-12-29T17:38:01.607Z,69.61
2022-12-29T17:40:31.052Z,68.85
2022-12-29T17:42:59.554Z,68.91
2022-12-29T17:45:30.994Z,68.75
2022-12-29T17:48:01.944Z,68.81
2022-12-29T17:50:30.647Z,67.56
2022-12-29T17:53:04.996Z,67.96
2022-12-29T17:55:37.526Z,67.88
2022-12-29T17:58:19.825Z,66.99
2022-12-29T18:00:48.598Z,66.79
2022-12-29T18:03:17.384Z,66.45
2022-12-29T18:05:44.678Z,66.70
2022-12-29T18:08:12.352Z,67.04
2022-12-29T18:10:39.972Z,67.08
2022-12-29T18:13:07.194Z,66.06
2022-12-29T18:15:36.450Z,66.72
2022-12-29T18:18:14.688Z,65.64
2022-12-29T18:20:43.051Z,66.65
2022-12-29T18:23:23.808Z,66.96
2022-12-29T18:26:04.135Z,67.25
2022-12-29T18:28:30.725Z,66.45
2022-12-29T18:30:59.560Z,66.65
2022-12-29T18:33:26.975Z,66.38
2022-12-29T18:36:03.601Z,66.51
2022-12-29T18:38:30.059Z,67.58
2022-12-29T18:40:57.633Z,66.50
2022-12-29T18:43:24.848Z,66.83
2022-12-29T18:45:51.357Z,66.54
2022-12-29T18:48:19.591Z,66.01
2022-12-29T18:50:47.425Z,66.97
2022-12-29T18:53:22.167Z,66.55
2022-12-29T18:55:48.971Z,65.67
2022-12-29T18:58:15.855Z,65.81
2022-12-29T19:00:42.986Z,66.32
2022-12-29T19:03:12.818Z,66.15
2022-12-29T19:05:41.171Z,65.52
2022-12-29T19:08:08.562Z,66.10
2022-12-29T19:10:35.406Z,66.46
2022-12-29T19:13:02.307Z,66.47
2022-12-29T19:15:32.061Z,66.68
2022-12-29T19:18:41.799Z,66.65
2022-12-29T19:20:49.441Z,67.04
2022-12-29T19:23:18.474Z,66.71
2022-12-29T19:25:45.421Z,67.48
2022-12-29T19:28:23.956Z,68.08
2022-12-29T19:30:52.710Z,68.07
2022-12-29T19:33:24.083Z,68.58
2022-12-29T19:35:51.538Z,67.82
2022-12-29T19:38:19.201Z,68.53
2022-12-29T19:40:48.937Z,69.02
2022-12-29T19:43:15.749Z,68.44
2022-12-29T19:45:43.556Z,67.53
2022-12-29T19:48:15.999Z,67.40
2022-12-29T19:50:43.414Z,68.51
2022-12-29T19:53:10.342Z,68.47
2022-12-29T19:55:37.020Z,68.13
2022-12-29T19:58:03.823Z,68.02
2022-12-29T20:00:30.354Z,68.45
2022-12-29T20:02:56.916Z,67.94
2022-12-29T20:05:23.565Z,69.11
2022-12-29T20:07:49.946Z,68.54
2022-12-29T20:10:16.391Z,69.41
2022-12-29T20:12:42.865Z,69.20
2022-12-29T20:15:16.431Z,68.66
2022-12-29T20:18:12.682Z,68.79
2022-12-29T20:20:29.348Z,68.96
2022-12-29T20:22:56.626Z,69.28
2022-12-29T20:28:09.695Z,69.03
2022-12-29T20:30:36.642Z,69.22
2022-12-29T20:33:08.029Z,69.73
2022-12-29T20:35:35.721Z,69.16
2022-12-29T20:38:02.121Z,70.02
2022-12-29T20:40:28.648Z,70.19
2022-12-29T20:42:55.074Z,69.29
2022-12-29T20:45:21.728Z,69.16
2022-12-29T20:47:48.140Z,69.13
2022-12-29T20:50:15.136Z,69.01
2022-12-29T20:52:41.559Z,69.08
2022-12-29T20:55:08.172Z,69.71
2022-12-29T20:57:57.051Z,69.15
2022-12-29T21:00:22.791Z,69.14
2022-12-29T21:02:50.061Z,69.75
2022-12-29T21:05:25.283Z,69.24
2022-12-29T21:07:53.306Z,69.14
2022-12-29T21:10:20.312Z,69.09
2022-12-29T21:12:46.674Z,69.21
2022-12-29T21:15:15.032Z,69.59
2022-12-29T21:17:43.134Z,69.52
2022-12-29T21:20:10.862Z,69.38
2022-12-29T21:22:37.285Z,69.31
2022-12-29T21:25:03.854Z,69.24
2022-12-29T21:27:30.248Z,68.35
2022-12-29T21:29:57.922Z,68.65
2022-12-29T21:32:24.436Z,69.16
2022-12-29T21:34:50.790Z,68.81
2022-12-29T21:37:23.267Z,67.71
2022-12-29T21:39:49.980Z,68.72
2022-12-29T21:42:16.346Z,68.27
2022-12-29T21:45:01.225Z,68.10
2022-12-29T21:47:47.572Z,68.29
2022-12-29T21:50:13.971Z,67.92
2022-12-29T21:52:40.377Z,68.25
2022-12-29T21:55:08.845Z,69.03
2022-12-29T21:57:54.868Z,67.54
2022-12-29T22:00:39.572Z,68.51
2022-12-29T22:03:24.585Z,68.44
2022-12-29T22:06:10.191Z,68.53
2022-12-29T22:08:55.907Z,68.27
2022-12-29T22:11:40.698Z,68.13
2022-12-29T22:14:07.142Z,67.89
2022-12-29T22:16:33.589Z,67.80
2022-12-29T22:19:00.039Z,67.92
2022-12-29T22:21:26.607Z,67.96
2022-12-29T22:23:53.230Z,67.72
2022-12-29T22:26:19.629Z,67.82
2022-12-29T22:28:47.777Z,67.19
2022-12-29T22:31:32.538Z,67.50
2022-12-29T22:34:01.616Z,67.56
2022-12-29T22:36:28.586Z,67.70
2022-12-29T22:38:55.030Z,67.51
2022-12-29T22:41:22.089Z,68.18
2022-12-29T22:43:48.414Z,67.94
2022-12-29T22:46:14.824Z,68.42
2022-12-29T22:48:41.491Z,68.03
2022-12-29T22:51:07.989Z,68.00
2022-12-29T22:53:34.441Z,68.09
2022-12-29T22:56:02.629Z,67.83
2022-12-29T22:58:28.977Z,67.88
2022-12-29T23:00:55.300Z,67.85
2022-12-29T23:03:21.730Z,67.06
2022-12-29T23:05:59.668Z,66.87
2022-12-29T23:08:27.752Z,67.89
2022-12-29T23:10:54.268Z,67.69
2022-12-29T23:13:20.737Z,68.07
2022-12-29T23:15:47.747Z,67.67
2022-12-29T23:18:14.783Z,68.97
2022-12-29T23:20:41.103Z,67.11
2022-12-29T23:23:07.677Z,68.61
2022-12-29T23:25:39.049Z,69.02
2022-12-29T23:28:08.315Z,68.87
2022-12-29T23:30:35.053Z,68.47
2022-12-29T23:33:01.400Z,68.52
2022-12-29T23:35:27.756Z,67.67
2022-12-29T23:37:54.133Z,68.11
2022-12-29T23:40:20.457Z,67.49
2022-12-29T23:42:46.935Z,68.23
2022-12-29T23:45:13.507Z,68.34
2022-12-29T23:47:39.852Z,69.10
2022-12-29T23:50:06.661Z,69.43
2022-12-29T23:52:33.002Z,68.61
2022-12-29T23:54:59.324Z,68.27
2022-12-29T23:57:25.652Z,68.15
2022-12-29T23:59:51.990Z,67.53
